Time;durP1;ratioP1;P1;durP2;ratioP2;P2;SDS_P1;SDS_P2;PMS_P1;PMS_P2;Temp;Humidity;BMP_temperature;BMP_pressure;BME280_temperature;BME280_humidity;BME280_pressure;Samples;Min_cycle;Max_cycle;Signal;HPM_P1;HPM_P2
2023/04/09 00:01:08;;;;;;;69.43;57.60;;;9.40;99.90;;;;;;4882319;29;20413;-93
2023/04/09 00:03:34;;;;;;;71.63;57.57;;;9.10;99.90;;;;;;4881431;29;20421;-92
2023/04/09 00:06:00;;;;;;;67.72;54.78;;;9.40;99.90;;;;;;4881617;29;20425;-93
2023/04/09 00:08:26;;;;;;;68.65;56.53;;;9.70;99.90;;;;;;4881489;29;20435;-93
2023/04/09 00:10:52;;;;;;;67.03;53.63;;;9.50;99.90;;;;;;4881119;29;20448;-92
2023/04/09 00:13:19;;;;;;;66.95;53.78;;;9.60;99.90;;;;;;4882161;29;20441;-93
2023/04/09 00:15:45;;;;;;;67.28;54.03;;;9.50;99.90;;;;;;4881648;29;20417;-91
2023/04/09 00:18:12;;;;;;;65.28;53.38;;;9.30;99.90;;;;;;4882070;29;20445;-93
2023/04/09 00:20:38;;;;;;;65.10;53.75;;;9.60;99.90;;;;;;4881291;29;20420;-93
2023/04/09 00:23:04;;;;;;;65.70;53.58;;;9.70;99.90;;;;;;4881714;29;20903;-92
2023/04/09 00:25:29;;;;;;;64.10;53.03;;;9.50;99.90;;;;;;4881003;29;20439;-91
2023/04/09 00:27:55;;;;;;;64.22;53.00;;;9.70;99.90;;;;;;4881046;29;20425;-93
2023/04/09 00:30:21;;;;;;;63.67;52.27;;;9.60;99.90;;;;;;4880666;29;20993;-93
2023/04/09 00:32:47;;;;;;;63.53;51.60;;;9.50;99.90;;;;;;4880901;29;20423;-92
2023/04/09 00:35:13;;;;;;;62.67;51.73;;;9.60;99.90;;;;;;4881613;29;20417;-94
2023/04/09 00:37:39;;;;;;;61.77;51.40;;;9.50;99.90;;;;;;4880792;29;20401;-93
2023/04/09 00:40:05;;;;;;;64.70;52.00;;;10.10;99.90;;;;;;4881863;29;20445;-93
2023/04/09 00:42:32;;;;;;;64.88;51.53;;;9.40;99.90;;;;;;4880396;29;20465;-93
2023/04/09 00:45:01;;;;;;;62.58;51.83;;;9.30;99.90;;;;;;4881873;29;20421;-93
2023/04/09 00:47:30;;;;;;;60.38;50.47;;;9.20;99.90;;;;;;4881261;29;20424;-94
2023/04/09 00:49:56;;;;;;;61.60;50.03;;;9.40;99.90;;;;;;4882850;29;20436;-93
2023/04/09 00:52:23;;;;;;;65.60;51.45;;;9.30;99.90;;;;;;4881522;29;20527;-93
2023/04/09 00:54:50;;;;;;;64.85;50.78;;;9.70;99.90;;;;;;4881430;29;20413;-93
2023/04/09 00:57:16;;;;;;;68.90;53.50;;;9.50;99.90;;;;;;4881312;29;20748;-93
2023/04/09 00:59:45;;;;;;;66.70;52.60;;;9.40;99.90;;;;;;4884236;29;20405;-94
2023/04/09 01:02:11;;;;;;;68.35;52.88;;;9.40;99.90;;;;;;4884330;29;20470;-92
2023/04/09 01:04:39;;;;;;;67.75;51.90;;;9.50;99.90;;;;;;4882394;29;20417;-93
2023/04/09 01:07:08;;;;;;;71.38;53.97;;;9.50;99.90;;;;;;4881214;29;20409;-92
2023/04/09 01:09:45;;;;;;;68.45;53.47;;;9.40;99.90;;;;;;4880145;29;20432;-93
2023/04/09 01:12:24;;;;;;;70.72;53.35;;;9.40;99.90;;;;;;4880492;29;20445;-93
2023/04/09 01:15:12;;;;;;;69.38;53.22;;;9.30;99.90;;;;;;4884706;29;20922;-95
2023/04/09 01:17:48;;;;;;;72.27;53.20;;;9.30;99.90;;;;;;4879939;29;20494;-94
2023/04/09 01:20:21;;;;;;;74.18;53.80;;;9.20;99.90;;;;;;4882486;29;20425;-92
2023/04/09 01:22:55;;;;;;;76.45;54.42;;;9.30;99.90;;;;;;4882546;29;20416;-95
2023/04/09 01:25:29;;;;;;;75.18;55.60;;;9.20;99.90;;;;;;4882689;29;20416;-94
2023/04/09 01:28:16;;;;;;;76.15;54.92;;;9.20;99.90;;;;;;4881086;29;20579;-92
2023/04/09 01:30:51;;;;;;;77.22;54.10;;;9.20;99.90;;;;;;4846686;29;20493;-92
2023/04/09 01:33:18;;;;;;;77.00;55.60;;;9.00;99.90;;;;;;4880502;29;20473;-93
2023/04/09 01:35:47;;;;;;;75.60;55.08;;;9.20;99.90;;;;;;4879436;29;20413;-92
2023/04/09 01:38:23;;;;;;;76.85;54.33;;;9.30;99.90;;;;;;4882166;29;20428;-94
2023/04/09 01:40:50;;;;;;;78.63;54.63;;;9.10;99.90;;;;;;4882074;29;20421;-93
2023/04/09 01:43:17;;;;;;;77.63;54.95;;;9.00;99.90;;;;;;4882814;29;20925;-94
2023/04/09 01:45:44;;;;;;;77.97;55.00;;;9.30;99.90;;;;;;4884017;29;20417;-94
2023/04/09 01:48:12;;;;;;;79.57;56.40;;;9.10;99.90;;;;;;4880355;29;20910;-94
2023/04/09 01:50:39;;;;;;;76.53;54.30;;;8.90;99.90;;;;;;4881760;29;20460;-93
2023/04/09 01:53:08;;;;;;;75.93;53.22;;;9.20;99.90;;;;;;4883426;29;20499;-94
2023/04/09 01:55:34;;;;;;;75.60;52.70;;;9.00;99.90;;;;;;4880783;29;20425;-91
2023/04/09 01:57:59;;;;;;;77.97;53.55;;;9.00;99.90;;;;;;4880181;29;20918;-93
2023/04/09 02:00:32;;;;;;;68.85;48.42;;;9.10;99.90;;;;;;4882594;29;20437;-92
2023/04/09 02:03:34;;;;;;;69.20;48.40;;;9.00;99.90;;;;;;4882873;29;20428;-93
2023/04/09 02:06:14;;;;;;;71.28;50.65;;;8.90;99.90;;;;;;4882153;29;20422;-91
2023/04/09 02:08:46;;;;;;;74.63;52.17;;;9.00;99.90;;;;;;4881773;29;20425;-96
2023/04/09 02:11:35;;;;;;;72.70;51.83;;;8.90;99.90;;;;;;4879972;29;20476;-94
2023/04/09 02:14:02;;;;;;;72.50;52.80;;;9.20;99.90;;;;;;4894281;29;20504;-94
2023/04/09 02:16:30;;;;;;;78.30;53.63;;;8.90;99.90;;;;;;4880105;29;20732;-93
2023/04/09 02:18:55;;;;;;;80.20;54.00;;;9.10;99.90;;;;;;4879623;29;20429;-92
2023/04/09 02:21:22;;;;;;;79.03;53.90;;;9.00;99.90;;;;;;4879788;29;20429;-92
2023/04/09 02:23:48;;;;;;;77.70;53.95;;;9.00;99.90;;;;;;4879771;29;20845;-92
2023/04/09 02:26:13;;;;;;;76.05;53.33;;;8.60;99.90;;;;;;4879531;29;20441;-91
2023/04/09 02:28:39;;;;;;;79.17;54.40;;;8.90;99.90;;;;;;4879408;29;20432;-92
2023/04/09 02:31:05;;;;;;;78.07;54.97;;;9.10;99.90;;;;;;4879013;29;20448;-92
2023/04/09 02:33:30;;;;;;;80.80;55.70;;;8.80;99.90;;;;;;4879822;29;20413;-90
2023/04/09 02:35:56;;;;;;;79.45;54.40;;;8.80;99.90;;;;;;4879054;29;20477;-92
2023/04/09 02:38:22;;;;;;;82.83;54.80;;;9.50;99.90;;;;;;4879506;29;20511;-92
2023/04/09 02:40:47;;;;;;;83.33;54.50;;;9.20;99.90;;;;;;4879143;29;21064;-91
2023/04/09 02:43:13;;;;;;;80.20;56.03;;;9.10;99.90;;;;;;4879550;29;20496;-93
2023/04/09 02:45:39;;;;;;;78.18;53.92;;;8.80;99.90;;;;;;4879168;29;20516;-93
2023/04/09 02:48:04;;;;;;;78.57;53.13;;;9.40;99.90;;;;;;4878783;29;20445;-93
2023/04/09 02:50:30;;;;;;;73.47;50.00;;;8.70;99.90;;;;;;4881928;29;20425;-94
2023/04/09 02:52:56;;;;;;;71.78;49.35;;;8.80;99.90;;;;;;4879087;29;20417;-94
2023/04/09 02:55:21;;;;;;;70.82;48.80;;;9.00;99.90;;;;;;4881319;29;20452;-94
2023/04/09 02:57:47;;;;;;;68.55;48.00;;;8.70;99.90;;;;;;4879353;29;21314;-91
2023/04/09 03:00:13;;;;;;;69.30;48.30;;;8.60;99.90;;;;;;4879740;29;20958;-91
2023/04/09 03:02:39;;;;;;;69.57;47.15;;;8.60;99.90;;;;;;4878745;29;20429;-92
2023/04/09 03:05:05;;;;;;;68.38;46.20;;;8.30;99.90;;;;;;4879327;29;20476;-90
2023/04/09 03:07:31;;;;;;;66.85;44.33;;;8.40;99.90;;;;;;4878999;29;20409;-92
2023/04/09 03:09:56;;;;;;;63.95;43.70;;;8.30;99.90;;;;;;4878642;29;20535;-92
2023/04/09 03:12:22;;;;;;;64.05;44.42;;;8.40;99.90;;;;;;4879503;29;20899;-92
2023/04/09 03:14:48;;;;;;;71.28;46.78;;;8.30;99.90;;;;;;4878803;29;20417;-91
2023/04/09 03:17:14;;;;;;;64.90;43.73;;;8.20;99.90;;;;;;4878808;29;20417;-91
2023/04/09 03:19:39;;;;;;;65.07;42.90;;;7.80;99.90;;;;;;4878483;29;20421;-92
2023/04/09 03:22:05;;;;;;;66.90;43.43;;;8.00;99.90;;;;;;4878283;29;20418;-91
2023/04/09 03:24:32;;;;;;;70.10;43.63;;;7.80;99.90;;;;;;4878697;29;20786;-90
2023/04/09 03:26:58;;;;;;;75.90;46.92;;;7.80;99.90;;;;;;4878861;29;20421;-90
2023/04/09 03:29:24;;;;;;;64.63;43.50;;;7.60;99.90;;;;;;4878769;29;20503;-91
2023/04/09 03:31:50;;;;;;;75.38;47.90;;;7.60;99.90;;;;;;4878314;29;20437;-90
2023/04/09 03:34:16;;;;;;;74.27;47.90;;;8.00;99.90;;;;;;4879060;29;20420;-91
2023/04/09 03:36:41;;;;;;;72.25;45.97;;;7.60;99.90;;;;;;4878203;29;20786;-91
2023/04/09 03:39:07;;;;;;;71.90;45.60;;;7.70;99.90;;;;;;4878861;29;20409;-90
2023/04/09 03:41:33;;;;;;;76.97;47.40;;;7.70;99.90;;;;;;4878150;29;20421;-91
2023/04/09 03:43:59;;;;;;;74.47;46.80;;;8.00;99.90;;;;;;4878940;29;20432;-91
2023/04/09 03:46:25;;;;;;;77.72;48.47;;;7.60;99.90;;;;;;4878494;29;20425;-92
2023/04/09 03:48:50;;;;;;;77.78;48.30;;;8.00;99.90;;;;;;4878300;29;20425;-92
2023/04/09 03:51:17;;;;;;;77.40;48.20;;;8.00;99.90;;;;;;4878683;29;20441;-92
2023/04/09 03:53:42;;;;;;;76.72;48.17;;;7.90;99.90;;;;;;4878574;29;20449;-92
2023/04/09 03:56:09;;;;;;;70.32;46.60;;;8.10;99.90;;;;;;4878930;29;20476;-92
2023/04/09 03:58:35;;;;;;;68.40;45.92;;;7.90;99.90;;;;;;4878138;29;20496;-93
2023/04/09 04:01:01;;;;;;;68.93;45.53;;;8.00;99.90;;;;;;4878522;29;20512;-92
2023/04/09 04:03:27;;;;;;;69.28;44.67;;;8.00;99.90;;;;;;4877955;29;20460;-93
2023/04/09 04:05:52;;;;;;;67.97;43.60;;;7.90;99.90;;;;;;4879264;29;21049;-92
2023/04/09 04:08:18;;;;;;;73.43;46.07;;;8.10;99.90;;;;;;4878487;29;20504;-93
2023/04/09 04:10:44;;;;;;;69.27;44.97;;;8.20;99.90;;;;;;4878042;29;21192;-91
2023/04/09 04:13:10;;;;;;;68.20;45.35;;;8.00;99.90;;;;;;4878694;29;20416;-91
2023/04/09 04:15:42;;;;;;;68.18;44.13;;;8.00;99.90;;;;;;4878014;29;20425;-92
2023/04/09 04:18:09;;;;;;;67.37;44.40;;;8.00;99.90;;;;;;4878673;29;20429;-93
2023/04/09 04:20:36;;;;;;;66.53;43.55;;;8.10;99.90;;;;;;4877738;29;20456;-93
2023/04/09 04:23:03;;;;;;;68.07;43.83;;;8.00;99.90;;;;;;4878678;29;20432;-94
2023/04/09 04:25:29;;;;;;;67.63;43.60;;;8.20;99.90;;;;;;4878298;29;20442;-93
2023/04/09 04:27:55;;;;;;;65.40;42.78;;;8.30;99.90;;;;;;4878375;29;20419;-93
2023/04/09 04:30:21;;;;;;;68.18;42.90;;;8.10;99.90;;;;;;4878486;29;20425;-93
2023/04/09 04:32:48;;;;;;;64.65;42.40;;;8.10;99.90;;;;;;4879224;29;20525;-91
2023/04/09 04:35:14;;;;;;;65.00;43.38;;;8.30;99.90;;;;;;4882160;29;20421;-91
2023/04/09 04:37:40;;;;;;;63.85;41.55;;;8.40;99.90;;;;;;4881162;29;20492;-93
2023/04/09 04:40:06;;;;;;;62.85;42.35;;;8.20;99.90;;;;;;4881741;29;20491;-91
2023/04/09 04:42:33;;;;;;;61.05;41.17;;;8.00;99.90;;;;;;4881209;29;20421;-93
2023/04/09 04:44:59;;;;;;;62.05;40.60;;;8.10;99.90;;;;;;4881635;29;20421;-92
2023/04/09 04:47:24;;;;;;;60.90;40.17;;;8.20;99.90;;;;;;4881802;29;20421;-92
2023/04/09 04:49:50;;;;;;;59.97;39.90;;;8.10;99.90;;;;;;4881216;29;20472;-91
2023/04/09 04:52:16;;;;;;;60.40;40.40;;;8.10;99.90;;;;;;4881566;29;20448;-93
2023/04/09 04:54:42;;;;;;;59.72;40.00;;;8.60;99.90;;;;;;4880966;29;20480;-93
2023/04/09 04:57:07;;;;;;;55.38;38.85;;;8.10;99.90;;;;;;4881269;29;20417;-91
2023/04/09 04:59:37;;;;;;;56.07;39.43;;;8.20;99.90;;;;;;4880600;29;20432;-92
2023/04/09 05:02:03;;;;;;;55.65;39.08;;;8.10;99.90;;;;;;4881698;29;20790;-92
2023/04/09 05:04:29;;;;;;;56.75;39.78;;;8.20;99.90;;;;;;4880959;29;20432;-93
2023/04/09 05:06:54;;;;;;;54.80;38.88;;;8.40;99.90;;;;;;4881155;29;21005;-92
2023/04/09 05:09:20;;;;;;;54.75;39.67;;;8.30;99.90;;;;;;4881476;29;20413;-93
2023/04/09 05:11:46;;;;;;;55.15;39.40;;;8.30;99.90;;;;;;4880556;29;20464;-93
2023/04/09 05:14:12;;;;;;;54.87;38.63;;;8.20;99.90;;;;;;4881135;29;20417;-92
2023/04/09 05:16:37;;;;;;;55.67;39.00;;;8.20;99.90;;;;;;4880388;29;20409;-93
2023/04/09 05:19:03;;;;;;;54.87;38.67;;;8.20;99.90;;;;;;4880858;29;20509;-92
2023/04/09 05:21:30;;;;;;;52.75;38.35;;;8.50;99.90;;;;;;4880082;29;20413;-93
2023/04/09 05:23:56;;;;;;;57.13;39.55;;;8.50;99.90;;;;;;4880846;29;20413;-91
2023/04/09 05:26:21;;;;;;;55.28;39.50;;;8.20;99.90;;;;;;4880885;29;20447;-92
2023/04/09 05:28:47;;;;;;;53.03;38.97;;;8.00;99.90;;;;;;4878789;29;20484;-92
2023/04/09 05:31:14;;;;;;;56.80;39.35;;;8.40;99.90;;;;;;4879546;29;21106;-95
2023/04/09 05:33:40;;;;;;;55.10;39.33;;;8.40;99.90;;;;;;4878444;29;20409;-93
2023/04/09 05:36:06;;;;;;;51.55;38.30;;;8.40;99.90;;;;;;4874303;29;20442;-94
2023/04/09 05:38:32;;;;;;;53.28;37.72;;;8.30;99.90;;;;;;4873259;29;20513;-93
2023/04/09 05:40:58;;;;;;;50.55;37.95;;;8.40;99.90;;;;;;4879770;29;20421;-94
2023/04/09 05:43:24;;;;;;;48.75;36.83;;;8.20;99.90;;;;;;4886387;29;20414;-92
2023/04/09 05:45:50;;;;;;;47.05;35.28;;;8.20;99.90;;;;;;4898128;29;20423;-92
2023/04/09 05:48:17;;;;;;;45.87;34.27;;;8.50;99.90;;;;;;4883000;29;20431;-95
2023/04/09 05:50:49;;;;;;;46.97;35.90;;;8.40;99.90;;;;;;4878409;24;20451;-93
2023/04/09 05:53:15;;;;;;;48.50;35.83;;;9.00;99.90;;;;;;4846519;29;20425;-93
2023/04/09 05:55:41;;;;;;;49.60;36.83;;;8.50;99.90;;;;;;4843227;29;20425;-92
2023/04/09 05:58:06;;;;;;;48.22;36.78;;;8.40;99.90;;;;;;4842988;29;20436;-91
2023/04/09 06:00:32;;;;;;;48.92;36.88;;;8.80;99.90;;;;;;4843264;29;20570;-94
2023/04/09 06:02:58;;;;;;;47.63;36.00;;;8.50;99.90;;;;;;4843540;29;20493;-91
2023/04/09 06:05:23;;;;;;;44.43;35.27;;;8.80;99.90;;;;;;4842059;29;20500;-95
2023/04/09 06:07:50;;;;;;;41.45;33.67;;;8.50;99.90;;;;;;4843753;29;20421;-93
2023/04/09 06:10:16;;;;;;;40.67;31.38;;;8.60;99.90;;;;;;4841897;29;20444;-92
2023/04/09 06:12:45;;;;;;;38.42;30.17;;;8.50;99.90;;;;;;4842867;29;20528;-94
2023/04/09 06:15:10;;;;;;;37.95;30.83;;;9.00;99.90;;;;;;4843022;29;20429;-92
2023/04/09 06:17:39;;;;;;;34.57;28.53;;;8.70;99.90;;;;;;4844168;29;20431;-95
2023/04/09 06:20:05;;;;;;;33.65;28.08;;;8.40;99.90;;;;;;4846116;29;20792;-94
2023/04/09 06:22:36;;;;;;;35.03;28.50;;;8.60;99.90;;;;;;4844977;29;20452;-95
2023/04/09 06:25:02;;;;;;;35.47;29.30;;;8.60;99.90;;;;;;4851149;29;20420;-93
2023/04/09 06:27:28;;;;;;;37.70;30.53;;;8.60;99.90;;;;;;4843512;29;20431;-93
2023/04/09 06:29:54;;;;;;;38.83;30.83;;;8.60;99.90;;;;;;4847182;29;20424;-93
2023/04/09 06:32:35;;;;;;;37.03;29.83;;;8.50;99.90;;;;;;4852379;29;20539;-96
2023/04/09 06:35:04;;;;;;;37.83;30.88;;;8.50;99.90;;;;;;4855578;29;20429;-93
2023/04/09 06:37:30;;;;;;;35.78;29.85;;;8.60;99.90;;;;;;4841597;29;20412;-93
2023/04/09 06:39:55;;;;;;;34.88;29.10;;;8.60;99.90;;;;;;4844037;29;20565;-94
2023/04/09 06:42:21;;;;;;;35.70;29.37;;;8.60;99.90;;;;;;4841478;29;20425;-92
2023/04/09 06:44:47;;;;;;;36.97;29.57;;;8.90;99.90;;;;;;4842847;29;20592;-92
2023/04/09 06:47:12;;;;;;;35.90;29.70;;;8.40;99.90;;;;;;4842312;29;20521;-94
2023/04/09 06:49:44;;;;;;;35.63;29.63;;;8.70;99.90;;;;;;4843112;29;20775;-96
2023/04/09 06:52:18;;;;;;;36.55;29.50;;;8.70;99.90;;;;;;4845813;29;20455;-94
2023/04/09 06:54:45;;;;;;;37.35;31.08;;;8.70;99.90;;;;;;4842916;29;20448;-93
2023/04/09 06:57:10;;;;;;;37.53;31.05;;;8.80;99.90;;;;;;4842349;29;21040;-93
2023/04/09 07:00:24;;;;;;;;;;;;;;;;;;;;;
2023/04/09 07:02:45;;;;;;;38.90;32.45;;;9.00;99.90;;;;;;4856530;29;20433;-91
2023/04/09 07:05:11;;;;;;;39.58;32.55;;;8.80;99.90;;;;;;4841612;29;20431;-91
2023/04/09 07:07:37;;;;;;;38.83;32.53;;;9.00;99.90;;;;;;4842060;29;20413;-93
2023/04/09 07:10:03;;;;;;;39.25;31.50;;;8.90;99.90;;;;;;4842097;29;20516;-91
2023/04/09 07:12:31;;;;;;;39.53;32.83;;;8.90;99.90;;;;;;4841489;29;20535;-93
2023/04/09 07:15:06;;;;;;;39.45;32.03;;;8.90;99.90;;;;;;4842669;29;20802;-93
2023/04/09 07:17:33;;;;;;;36.53;31.33;;;8.90;99.90;;;;;;4841044;29;20463;-94
2023/04/09 07:19:59;;;;;;;37.80;31.42;;;9.20;99.90;;;;;;4843993;29;20416;-94
2023/04/09 07:22:26;;;;;;;38.88;31.77;;;9.00;99.90;;;;;;4840693;29;20481;-91
2023/04/09 07:24:55;;;;;;;38.05;31.83;;;8.90;99.90;;;;;;4840871;29;20427;-91
2023/04/09 07:27:22;;;;;;;36.97;31.25;;;9.20;99.90;;;;;;4840825;29;20420;-92
2023/04/09 07:29:48;;;;;;;37.92;31.27;;;9.10;99.90;;;;;;4842984;29;20594;-92
2023/04/09 07:32:15;;;;;;;37.42;31.13;;;9.80;99.90;;;;;;4840592;29;20574;-90
2023/04/09 07:34:44;;;;;;;36.47;31.33;;;9.00;99.90;;;;;;4840461;29;20409;-92
2023/04/09 07:37:10;;;;;;;38.75;31.23;;;8.90;99.90;;;;;;4840621;29;20425;-94
2023/04/09 07:39:36;;;;;;;38.20;31.97;;;8.90;99.90;;;;;;4839704;29;20440;-91
2023/04/09 07:42:03;;;;;;;37.87;31.37;;;9.10;99.90;;;;;;4840712;29;20873;-93
2023/04/09 07:44:54;;;;;;;;;;;;;;;;;;;;;
2023/04/09 07:47:23;;;;;;;37.17;30.88;;;9.20;99.90;;;;;;4858680;29;20432;-93
2023/04/09 07:49:55;;;;;;;35.08;30.27;;;9.00;99.90;;;;;;4842135;29;20438;-94
2023/04/09 07:52:23;;;;;;;36.83;30.42;;;9.20;99.90;;;;;;4840477;29;20480;-93
2023/04/09 07:54:49;;;;;;;34.85;30.23;;;9.30;99.90;;;;;;4840179;29;20466;-93
2023/04/09 07:57:15;;;;;;;35.70;29.02;;;9.40;99.90;;;;;;4840201;29;20917;-92
2023/04/09 07:59:41;;;;;;;36.08;29.05;;;9.30;99.90;;;;;;4840755;29;20428;-93
2023/04/09 08:02:06;;;;;;;34.63;30.00;;;9.20;99.90;;;;;;4839914;29;20664;-93
2023/04/09 08:04:32;;;;;;;35.35;29.95;;;9.20;99.90;;;;;;4840179;29;20459;-92
2023/04/09 08:06:58;;;;;;;36.47;29.80;;;9.70;99.90;;;;;;4840678;29;20419;-93
2023/04/09 08:09:23;;;;;;;35.47;29.73;;;10.10;99.90;;;;;;4843934;29;20511;-94
2023/04/09 08:11:49;;;;;;;34.17;29.45;;;9.20;99.90;;;;;;4845324;29;20448;-92
2023/04/09 08:14:16;;;;;;;35.08;29.30;;;9.70;99.90;;;;;;4843354;29;20424;-92
2023/04/09 08:16:43;;;;;;;33.95;30.13;;;9.40;99.90;;;;;;4843718;29;20427;-91
2023/04/09 08:19:10;;;;;;;35.95;30.23;;;9.60;99.90;;;;;;4843356;29;20420;-91
2023/04/09 08:21:42;;;;;;;35.10;28.90;;;9.60;99.90;;;;;;4844278;29;20504;-94
2023/04/09 08:24:10;;;;;;;34.92;28.67;;;9.80;99.90;;;;;;4843334;29;20420;-93
2023/04/09 08:26:36;;;;;;;34.08;29.10;;;9.50;99.90;;;;;;4844708;29;20443;-93
2023/04/09 08:29:02;;;;;;;33.28;27.38;;;9.50;99.90;;;;;;4843647;29;20424;-93
2023/04/09 08:31:28;;;;;;;34.60;28.70;;;9.60;99.90;;;;;;4843266;29;20534;-92
2023/04/09 08:33:53;;;;;;;32.70;27.58;;;9.80;99.90;;;;;;4843891;29;20429;-92
2023/04/09 08:36:20;;;;;;;34.37;27.93;;;10.20;99.90;;;;;;4843194;29;20524;-92
2023/04/09 08:38:46;;;;;;;32.08;27.33;;;9.90;99.90;;;;;;4843441;29;20488;-92
2023/04/09 08:41:19;;;;;;;34.13;28.48;;;9.60;99.90;;;;;;4843347;29;20429;-92
2023/04/09 08:43:50;;;;;;;32.40;28.17;;;10.20;99.90;;;;;;4844079;29;20479;-92
2023/04/09 08:46:16;;;;;;;33.70;28.65;;;10.20;99.90;;;;;;4843614;29;20467;-93
2023/04/09 08:48:45;;;;;;;34.42;29.40;;;10.10;99.90;;;;;;4842957;29;20517;-91
2023/04/09 08:51:16;;;;;;;35.47;30.48;;;10.00;99.90;;;;;;4843175;29;20455;-92
2023/04/09 08:53:55;;;;;;;35.50;29.38;;;10.00;99.90;;;;;;4845147;29;20486;-95
2023/04/09 08:56:21;;;;;;;37.42;30.85;;;10.10;99.90;;;;;;4844434;29;20484;-94
2023/04/09 08:58:47;;;;;;;35.93;30.63;;;10.10;99.90;;;;;;4842853;29;20421;-91
2023/04/09 09:01:23;;;;;;;36.57;30.87;;;10.00;99.90;;;;;;4843323;29;20417;-92
2023/04/09 09:03:54;;;;;;;35.00;29.23;;;10.30;99.90;;;;;;4844630;29;20937;-92
2023/04/09 09:06:21;;;;;;;35.25;28.52;;;10.10;99.90;;;;;;4842778;29;20427;-91
2023/04/09 09:09:12;;;;;;;35.65;30.17;;;10.20;99.90;;;;;;4842734;29;20413;-92
2023/04/09 09:11:40;;;;;;;35.97;30.45;;;10.00;99.90;;;;;;4842644;29;20441;-92
2023/04/09 09:14:10;;;;;;;36.78;30.40;;;10.00;99.90;;;;;;4846355;29;20484;-94
2023/04/09 09:16:41;;;;;;;37.10;30.33;;;10.10;99.90;;;;;;4842833;29;20436;-94
2023/04/09 09:19:07;;;;;;;36.88;29.40;;;10.60;99.90;;;;;;4843664;29;20934;-92
2023/04/09 09:21:35;;;;;;;38.15;30.65;;;10.50;99.90;;;;;;4843336;29;20469;-93
2023/04/09 09:24:02;;;;;;;35.42;28.83;;;10.40;99.90;;;;;;4843346;29;20875;-90
2023/04/09 09:26:29;;;;;;;35.45;29.20;;;10.30;99.90;;;;;;4842908;29;20950;-92
2023/04/09 09:28:58;;;;;;;36.90;29.83;;;10.50;99.90;;;;;;4841981;29;20826;-90
2023/04/09 09:31:25;;;;;;;37.63;30.05;;;10.50;99.90;;;;;;4842465;29;20448;-92
2023/04/09 09:33:51;;;;;;;37.00;30.52;;;10.30;99.90;;;;;;4842625;29;20770;-90
2023/04/09 09:36:31;;;;;;;35.35;29.48;;;10.60;99.90;;;;;;4843094;29;20420;-92
2023/04/09 09:39:02;;;;;;;35.38;29.27;;;10.90;99.90;;;;;;4842585;29;20428;-92
2023/04/09 09:41:28;;;;;;;34.30;28.10;;;11.00;99.90;;;;;;4842277;29;20914;-92
2023/04/09 09:43:53;;;;;;;36.08;29.83;;;11.60;99.90;;;;;;4842648;29;20425;-91
2023/04/09 09:46:20;;;;;;;35.80;29.93;;;11.30;99.90;;;;;;4842120;29;20519;-90
2023/04/09 09:48:46;;;;;;;35.80;30.05;;;11.60;99.90;;;;;;4842629;29;20944;-91
2023/04/09 09:51:14;;;;;;;37.05;30.40;;;11.30;99.90;;;;;;4841565;29;20464;-91
2023/04/09 09:53:43;;;;;;;37.27;29.70;;;11.50;99.90;;;;;;4842218;29;20516;-92
2023/04/09 09:56:17;;;;;;;37.25;30.55;;;11.80;99.90;;;;;;4842255;29;20429;-95
2023/04/09 09:58:55;;;;;;;38.13;29.60;;;11.60;99.90;;;;;;4841922;29;20425;-92
2023/04/09 10:01:26;;;;;;;38.58;31.60;;;11.60;99.90;;;;;;4842452;29;20440;-91
2023/04/09 10:03:52;;;;;;;35.97;29.27;;;11.70;99.90;;;;;;4841555;29;20856;-93
2023/04/09 10:06:18;;;;;;;37.50;30.27;;;11.60;99.90;;;;;;4842437;29;20416;-93
2023/04/09 10:08:47;;;;;;;37.17;30.57;;;11.60;99.90;;;;;;4841212;29;20432;-93
2023/04/09 10:11:13;;;;;;;37.53;30.83;;;11.80;99.90;;;;;;4841919;29;21038;-94
2023/04/09 10:13:44;;;;;;;39.65;31.15;;;11.70;99.90;;;;;;4842083;29;20417;-91
2023/04/09 10:16:10;;;;;;;37.00;30.80;;;12.20;99.90;;;;;;4842267;29;20417;-91
2023/04/09 10:18:36;;;;;;;38.30;31.98;;;12.10;99.90;;;;;;4841790;29;20939;-93
2023/04/09 10:21:13;;;;;;;38.05;31.98;;;11.90;99.90;;;;;;4841195;29;20416;-93
2023/04/09 10:23:41;;;;;;;38.85;31.88;;;11.90;99.90;;;;;;4841520;29;20496;-94
2023/04/09 10:26:07;;;;;;;38.67;31.92;;;12.30;99.90;;;;;;4841419;29;20412;-92
2023/04/09 10:28:33;;;;;;;36.78;30.88;;;12.30;99.90;;;;;;4841545;29;20420;-91
2023/04/09 10:30:59;;;;;;;37.58;31.65;;;12.30;99.90;;;;;;4842170;29;20535;-92
2023/04/09 10:33:26;;;;;;;35.88;30.73;;;12.50;99.90;;;;;;4841447;29;20782;-91
2023/04/09 10:36:03;;;;;;;36.95;31.20;;;12.50;99.90;;;;;;4841356;29;20424;-93
2023/04/09 10:38:47;;;;;;;37.47;31.55;;;12.50;99.90;;;;;;4840926;29;20515;-93
2023/04/09 10:41:27;;;;;;;37.15;31.55;;;12.70;99.90;;;;;;4841274;29;20488;-94
2023/04/09 10:43:53;;;;;;;36.38;31.75;;;12.90;99.90;;;;;;4841951;29;20429;-93
2023/04/09 10:46:30;;;;;;;37.47;31.60;;;13.00;99.30;;;;;;4841121;29;20421;-93
2023/04/09 10:49:08;;;;;;;36.95;31.35;;;13.20;96.20;;;;;;4841925;29;20896;-93
2023/04/09 10:51:37;;;;;;;36.00;31.38;;;13.30;96.40;;;;;;4840568;29;20448;-93
2023/04/09 10:54:04;;;;;;;36.92;32.78;;;13.50;98.40;;;;;;4841463;29;20430;-95
2023/04/09 10:56:30;;;;;;;35.33;31.47;;;13.90;99.10;;;;;;4840967;29;20416;-94
2023/04/09 10:59:14;;;;;;;35.63;31.80;;;14.20;96.10;;;;;;4840508;29;20420;-95
2023/04/09 11:01:39;;;;;;;35.72;30.42;;;14.90;97.80;;;;;;4841262;29;20453;-91
2023/04/09 11:04:12;;;;;;;34.67;30.97;;;15.10;84.10;;;;;;4840932;29;20429;-94
2023/04/09 11:06:40;;;;;;;33.47;29.97;;;15.70;78.30;;;;;;4841197;29;20429;-92
2023/04/09 11:09:05;;;;;;;32.33;29.02;;;16.10;79.30;;;;;;4840770;29;20425;-94
2023/04/09 11:11:33;;;;;;;31.15;27.88;;;16.20;72.20;;;;;;4844470;29;20957;-95
2023/04/09 11:14:00;;;;;;;29.80;26.70;;;16.20;66.50;;;;;;4842010;29;20774;-95
2023/04/09 11:16:29;;;;;;;31.08;27.70;;;16.20;69.10;;;;;;4847584;29;20427;-95
2023/04/09 11:19:15;;;;;;;30.35;27.25;;;16.60;67.80;;;;;;4842701;29;20473;-96
2023/04/09 11:21:45;;;;;;;31.40;28.20;;;16.70;65.20;;;;;;4840786;29;20754;-92
2023/04/09 11:24:22;;;;;;;29.75;26.58;;;16.60;63.20;;;;;;4844684;29;20431;-96
2023/04/09 11:26:49;;;;;;;30.20;27.10;;;16.80;63.50;;;;;;4854088;29;20431;-93
2023/04/09 11:29:17;;;;;;;28.77;25.83;;;16.70;62.50;;;;;;4842212;29;20432;-96
2023/04/09 11:31:44;;;;;;;29.60;26.60;;;16.90;60.60;;;;;;4840246;29;20448;-91
2023/04/09 11:34:13;;;;;;;29.90;26.90;;;16.70;61.30;;;;;;4841204;29;20858;-92
2023/04/09 11:36:39;;;;;;;29.40;26.30;;;16.70;63.60;;;;;;4840352;29;20416;-94
2023/04/09 11:39:05;;;;;;;29.42;26.48;;;17.00;65.20;;;;;;4841218;29;20419;-93
2023/04/09 11:41:37;;;;;;;30.55;27.27;;;17.00;61.60;;;;;;4842394;29;20524;-93
2023/04/09 11:44:12;;;;;;;29.40;26.40;;;17.40;63.00;;;;;;4847039;29;20485;-96
2023/04/09 11:46:39;;;;;;;29.05;26.15;;;18.00;61.70;;;;;;4849761;29;20432;-94
2023/04/09 11:49:05;;;;;;;29.00;26.20;;;18.40;59.10;;;;;;4843827;29;20431;-96
2023/04/09 11:51:31;;;;;;;28.08;25.27;;;18.80;58.60;;;;;;4845061;29;21033;-93
2023/04/09 11:54:07;;;;;;;28.80;26.00;;;19.20;58.00;;;;;;4844165;29;20420;-94
2023/04/09 11:56:35;;;;;;;26.98;24.38;;;19.70;58.00;;;;;;4844504;29;20432;-93
2023/04/09 11:59:02;;;;;;;26.17;23.77;;;20.00;54.10;;;;;;4844463;29;20420;-93
2023/04/09 12:01:37;;;;;;;27.30;24.70;;;20.30;53.30;;;;;;4847354;29;20417;-95
2023/04/09 12:04:04;;;;;;;27.27;24.67;;;20.10;52.70;;;;;;4846490;29;20949;-94
2023/04/09 12:06:30;;;;;;;27.45;24.88;;;20.10;51.70;;;;;;4847996;29;20477;-95
2023/04/09 12:08:58;;;;;;;26.75;24.15;;;20.30;52.40;;;;;;4846846;29;20614;-92
2023/04/09 12:11:28;;;;;;;24.50;22.20;;;20.40;52.60;;;;;;4845057;29;20448;-93
2023/04/09 12:13:58;;;;;;;23.73;21.52;;;20.50;50.80;;;;;;4844095;29;20437;-91
2023/04/09 12:16:24;;;;;;;24.23;21.92;;;20.40;49.80;;;;;;4843462;29;20521;-93
2023/04/09 12:18:54;;;;;;;24.65;22.25;;;20.30;51.20;;;;;;4844627;29;20449;-92
2023/04/09 12:21:23;;;;;;;26.93;24.13;;;20.50;51.30;;;;;;4843795;29;20421;-94
2023/04/09 12:23:49;;;;;;;23.80;21.50;;;20.70;51.20;;;;;;4843913;29;20424;-94
2023/04/09 12:26:15;;;;;;;24.27;21.90;;;20.70;49.10;;;;;;4844520;29;20447;-93
2023/04/09 12:28:40;;;;;;;23.08;20.85;;;20.70;48.90;;;;;;4843524;29;20788;-95
2023/04/09 12:31:09;;;;;;;23.50;21.27;;;20.70;50.40;;;;;;4844484;29;20584;-92
2023/04/09 12:33:37;;;;;;;22.48;20.38;;;20.70;47.50;;;;;;4845327;29;20519;-95
2023/04/09 12:36:06;;;;;;;22.88;20.65;;;20.70;47.50;;;;;;4847334;29;20839;-93
2023/04/09 12:38:31;;;;;;;23.23;21.02;;;20.70;48.70;;;;;;4845489;29;20768;-95
2023/04/09 12:40:57;;;;;;;22.93;20.63;;;20.90;47.70;;;;;;4845330;29;20472;-93